Pacific Princess — ZCDS3 — position and weather

sailwx.info

Track history (hours):
 
Tides and Currents Weather Stations Pressure Air Temp Water Temp Dewpoint Dewpoint Depression Visibility Wind Speed Wind Dir Waves Ship Positions

Pacific Princess (Bermuda)

Last reported at 2015-May-20 16:18 UTC. Time now 2015-May-22 17:43 UTC.
Position N 51°04' W 127°59'.

Length 180.5 m; beam 25.6 m; draft 6 m.

Type: Passenger vessel. MMSI: 310504000.

Date/timePositionNaut miles runAvg speedWind from/ knotsBaromVisibWave heightAir tempDewpointWater temp
2015-May-20 16:18N 51°04' W 127°59'1213.3
2015-May-20 15:26N 50°57' W 127°45'1214.2
2015-May-20 14:33N 50°50' W 127°28'1414.4
2015-May-20 13:33N 50°45' W 127°07'1414.0
2015-May-20 12:33N 50°38' W 126°48'10713.2
2015-May-20 04:28N 49°34' W 124°35'1111.7
2015-May-20 03:30N 49°27' W 124°21'1112.0
2015-May-20 02:33N 49°23' W 124°05'1712.1
2015-May-20 01:10N 49°21' W 123°39'812.5
2015-May-20 00:32N 49°19' W 123°27'1212.5
2015-May-19 23:33N 49°19' W 123°09'2 2.1
2015-May-19 22:32N 49°17' W 123°06'0 0.0
2015-May-19 21:32N 49°17' W 123°06'0 0.0
2015-May-19 20:32N 49°17' W 123°06'0 0.0
2015-May-19 19:32N 49°17' W 123°06'0 0.0
2015-May-19 18:32N 49°17' W 123°06'0 0.0
2015-May-19 17:32N 49°17' W 123°06'0 0.0
2015-May-19 16:32N 49°17' W 123°06'0 0.0
2015-May-19 15:32N 49°17' W 123°06'0 0.0
2015-May-19 14:32N 49°17' W 123°06'1 1.2
2015-May-19 13:33N 49°18' W 123°07'10 9.9
2015-May-19 12:33N 49°13' W 123°20'1111.1
2015-May-19 11:34N 49°02' W 123°16'1312.6
2015-May-19 10:33N 48°53' W 123°03'10 9.8
2015-May-19 09:33N 48°44' W 123°08'1010.5
2015-May-19 08:33N 48°34' W 123°12'1111.4
2015-May-19 07:33N 48°22' W 123°16'5 0.6
2015-May-18 22:31N 48°25' W 123°23'0 0.0
2015-May-18 21:31N 48°25' W 123°23'0 0.1
2015-May-18 18:33N 48°25' W 123°24'9 8.7
2015-May-18 17:30N 48°16' W 123°27'1313.3
2015-May-18 16:33N 48°13' W 123°45'1414.5
2015-May-18 15:33N 48°17' W 124°06'1514.6
2015-May-18 14:33N 48°23' W 124°26'1414.5
2015-May-18 13:34N 48°29' W 124°46'1313.5
2015-May-18 12:34N 48°22' W 125°04'1716.4
2015-May-18 11:32N 48°06' W 125°11'5115.9
2015-May-18 08:20N 47°15' W 125°15'1916.4
2015-May-18 07:11N 46°56' W 125°14'1416.4
2015-May-18 06:21N 46°43' W 125°13'1316.4
2015-May-18 05:32N 46°30' W 125°12'1717.7
2015-May-18 04:33N 46°12' W 125°12'1817.9
2015-May-18 03:33N 45°54' W 125°11'1817.8
2015-May-18 02:33N 45°36' W 125°10'1817.8
2015-May-18 01:33N 45°18' W 125°09'41317.2
2015-May-17 01:34N 38°29' W 123°56'1717.2
2015-May-17 00:34N 38°13' W 123°48'1817.5
2015-May-16 23:33N 37°57' W 123°40'1717.3
2015-May-16 22:33N 37°41' W 123°31'5416.6
2015-May-16 19:19N 36°53' W 123°01'1417.2
2015-May-16 18:30N 36°40' W 122°53'1915.7
2015-May-16 17:18N 36°23' W 122°43'1115.2
2015-May-16 16:33N 36°13' W 122°36'1515.2
2015-May-16 15:33N 36°02' W 122°24'1616.3
2015-May-16 14:34N 35°49' W 122°12'1817.5
2015-May-16 13:33N 35°35' W 121°58'21415.2
2015-May-15 23:29N 33°44' W 118°16'1 1.1
2015-May-15 22:30N 33°45' W 118°17'0 0.0
2015-May-15 21:24N 33°45' W 118°17'0 0.0
2015-May-15 18:30N 33°45' W 118°17'0 0.0
2015-May-15 14:18N 33°45' W 118°17'0 0.0
2015-May-15 13:34N 33°45' W 118°17'29 9.2
2015-May-15 10:23N 33°18' W 118°02'1011.9
2015-May-15 09:31N 33°09' W 117°58'1211.9
2015-May-15 08:34N 32°58' W 117°54'1312.6
2015-May-15 07:34N 32°46' W 117°49'1413.6
2015-May-15 06:33N 32°34' W 117°42'1313.3
2015-May-15 05:33N 32°21' W 117°37'  
Track history (hours):
 
Tides and Currents Weather Stations Pressure Air Temp Water Temp Dewpoint Dewpoint Depression Visibility Wind Speed Wind Dir Waves Ship Positions

Pacific Princess (Bermuda)

Last reported at 2015-May-20 16:18 UTC. Time now 2015-May-22 17:43 UTC.
Position N 51°04' W 127°59'.

Length 180.5 m; beam 25.6 m; draft 6 m.

Type: Passenger vessel. MMSI: 310504000.

Date/timePositionNaut miles runAvg speedWind from/ knotsBaromVisibWave heightAir tempDewpointWater temp
2015-May-20 16:18N 51°04' W 127°59'1213.3
2015-May-20 15:26N 50°57' W 127°45'1214.2
2015-May-20 14:33N 50°50' W 127°28'1414.4
2015-May-20 13:33N 50°45' W 127°07'1414.0
2015-May-20 12:33N 50°38' W 126°48'10713.2
2015-May-20 04:28N 49°34' W 124°35'1111.7
2015-May-20 03:30N 49°27' W 124°21'1112.0
2015-May-20 02:33N 49°23' W 124°05'1712.1
2015-May-20 01:10N 49°21' W 123°39'812.5
2015-May-20 00:32N 49°19' W 123°27'1212.5
2015-May-19 23:33N 49°19' W 123°09'2 2.1
2015-May-19 22:32N 49°17' W 123°06'0 0.0
2015-May-19 21:32N 49°17' W 123°06'0 0.0
2015-May-19 20:32N 49°17' W 123°06'0 0.0
2015-May-19 19:32N 49°17' W 123°06'0 0.0
2015-May-19 18:32N 49°17' W 123°06'0 0.0
2015-May-19 17:32N 49°17' W 123°06'0 0.0
2015-May-19 16:32N 49°17' W 123°06'0 0.0
2015-May-19 15:32N 49°17' W 123°06'0 0.0
2015-May-19 14:32N 49°17' W 123°06'1 1.2
2015-May-19 13:33N 49°18' W 123°07'10 9.9
2015-May-19 12:33N 49°13' W 123°20'1111.1
2015-May-19 11:34N 49°02' W 123°16'1312.6
2015-May-19 10:33N 48°53' W 123°03'10 9.8
2015-May-19 09:33N 48°44' W 123°08'1010.5
2015-May-19 08:33N 48°34' W 123°12'1111.4
2015-May-19 07:33N 48°22' W 123°16'5 0.6
2015-May-18 22:31N 48°25' W 123°23'0 0.0
2015-May-18 21:31N 48°25' W 123°23'0 0.1
2015-May-18 18:33N 48°25' W 123°24'9 8.7
2015-May-18 17:30N 48°16' W 123°27'1313.3
2015-May-18 16:33N 48°13' W 123°45'1414.5
2015-May-18 15:33N 48°17' W 124°06'1514.6
2015-May-18 14:33N 48°23' W 124°26'1414.5
2015-May-18 13:34N 48°29' W 124°46'1313.5
2015-May-18 12:34N 48°22' W 125°04'1716.4
2015-May-18 11:32N 48°06' W 125°11'5115.9
2015-May-18 08:20N 47°15' W 125°15'1916.4
2015-May-18 07:11N 46°56' W 125°14'1416.4
2015-May-18 06:21N 46°43' W 125°13'1316.4
2015-May-18 05:32N 46°30' W 125°12'1717.7
2015-May-18 04:33N 46°12' W 125°12'1817.9
2015-May-18 03:33N 45°54' W 125°11'1817.8
2015-May-18 02:33N 45°36' W 125°10'1817.8
2015-May-18 01:33N 45°18' W 125°09'41317.2
2015-May-17 01:34N 38°29' W 123°56'1717.2
2015-May-17 00:34N 38°13' W 123°48'1817.5
2015-May-16 23:33N 37°57' W 123°40'1717.3
2015-May-16 22:33N 37°41' W 123°31'5416.6
2015-May-16 19:19N 36°53' W 123°01'1417.2
2015-May-16 18:30N 36°40' W 122°53'1915.7
2015-May-16 17:18N 36°23' W 122°43'1115.2
2015-May-16 16:33N 36°13' W 122°36'1515.2
2015-May-16 15:33N 36°02' W 122°24'1616.3
2015-May-16 14:34N 35°49' W 122°12'1817.5
2015-May-16 13:33N 35°35' W 121°58'21415.2
2015-May-15 23:29N 33°44' W 118°16'1 1.1
2015-May-15 22:30N 33°45' W 118°17'0 0.0
2015-May-15 21:24N 33°45' W 118°17'0 0.0
2015-May-15 18:30N 33°45' W 118°17'0 0.0
2015-May-15 14:18N 33°45' W 118°17'0 0.0
2015-May-15 13:34N 33°45' W 118°17'29 9.2
2015-May-15 10:23N 33°18' W 118°02'1011.9
2015-May-15 09:31N 33°09' W 117°58'1211.9
2015-May-15 08:34N 32°58' W 117°54'1312.6
2015-May-15 07:34N 32°46' W 117°49'1413.6
2015-May-15 06:33N 32°34' W 117°42'1313.3
2015-May-15 05:33N 32°21' W 117°37'  

Dump ship's entire track history